Vandenberg Village, California
Current Conditions -  °F | °C
As of 7:35 PM on Wednesday 22 Oct 2014 (Local Time) from KLPC Reporting Station
Clear Clear  
Wind Chill: 64°   Ceiling: Unl
Heat Index: 64°   Visibility: 10mi
Dew Point: 52°   Wind: 7mph
Humidity: 64%   Direction: 240°WSW
Pressure: 29.97"   Gusts: NA
Location:  34.608°N, 120.364°W
Report Text: KLPC 230235Z AUTO 24006KT 10SM CLR 18/11 A2997 RMK AO1
Loading
Personal Weather Stations






























Interactive Weather Map
Tropical Storm Tracking
New forecast layout! Learn more

10-Day Weather Forecast

Advertisements
Track Severe Weather on mobile